Data for 07/28/2009

Time Sea-Level Adjusted Pressure Absolute Pressure Temperature Relative Humidity Dew Point   
(mb) (inHg) (mb) (inHg) (C) (F) (%) (C) (F)
00:05 1025 30.27 854 25.22 13 55.5 88 11 51.8
00:10 1025 30.27 854 25.22 13 55.3 87 10.8 51.5
00:15 1025 30.27 854 25.22 12.7 54.9 86 10.5 50.9
00:20 1025 30.27 854 25.22 12.5 54.4 86 10.1 50.3
00:25 1025 30.27 854 25.22 12.2 54 85 9.8 49.7
00:30 1025 30.27 854 25.22 12.2 53.9 84 9.6 49.3
00:35 1025 30.27 854 25.22 12.2 54 84 9.7 49.4
00:40 1025 30.27 854 25.22 12.2 54 83 9.4 49
00:45 1025 30.27 854 25.22 12.2 53.9 84 9.5 49.1
00:50 1025 30.27 854 25.22 12.2 53.9 85 9.7 49.5
00:55 1025 30.27 854 25.22 12.2 54 85 9.7 49.5
01:00 1025 30.27 854 25.22 12 53.6 85 9.6 49.3
01:05 1025 30.27 854 25.22 11.8 53.3 86 9.6 49.4
01:10 1025 30.27 854 25.22 11.7 53.1 87 9.6 49.2
01:15 1025 30.27 854 25.22 11.6 53 86 9.4 49
01:20 1025 30.27 854 25.22 11.7 53.1 86 9.5 49
01:25 1025 30.27 854 25.22 11.9 53.4 85 9.4 48.9
01:30 1025 30.27 854 25.22 11.9 53.4 85 9.5 49.1
01:35 1025 30.27 854 25.22 11.9 53.4 86 9.6 49.3
01:40 1025 30.27 854 25.22 11.7 53.1 87 9.7 49.4
01:45 1025 30.27 854 25.22 11.7 53 87 9.6 49.3
01:50 1025 30.27 854 25.22 11.7 53 88 9.8 49.7
01:55 1025 30.27 854 25.22 11.5 52.7 89 9.8 49.6
02:00 1025 30.27 854 25.22 11.2 52.2 88 9.4 48.9
02:05 1025 30.27 854 25.22 11.2 52.1 87 9.1 48.4
02:10 1025 30.27 854 25.22 11.1 52 86 9 48.1
02:15 1025 30.27 854 25.22 11.2 52.2 85 8.8 47.8
02:20 1025 30.27 854 25.22 11.4 52.5 84 8.7 47.7
02:25 1025 30.27 854 25.22 11.4 52.5 84 8.7 47.7
02:30 1025 30.27 854 25.22 11.5 52.6 81 8.4 47.1
02:35 1025 30.27 854 25.22 11.7 53.1 81 8.5 47.3
02:40 1025 30.27 854 25.22 11.8 53.2 79 8.2 46.8
02:45 1025 30.27 854 25.22 11.9 53.5 80 8.5 47.4
02:50 1025 30.27 854 25.22 11.8 53.2 80 8.5 47.3
02:55 1024 30.24 854 25.22 11.5 52.7 82 8.6 47.4
03:00 1024 30.24 854 25.22 11.3 52.3 82 8.3 46.9
03:05 1024 30.24 854 25.22 11.1 52 82 8.2 46.8
03:10 1024 30.24 854 25.22 10.8 51.5 83 8.1 46.6
03:15 1024 30.24 853 25.19 10.8 51.5 83 8.1 46.5
03:20 1024 30.24 853 25.19 10.8 51.5 82 7.9 46.3
03:25 1024 30.24 853 25.19 10.8 51.5 83 8 46.5
03:30 1024 30.24 853 25.19 10.7 51.3 83 8 46.4
03:35 1024 30.24 853 25.19 10.6 51 84 8 46.4
03:40 1024 30.24 853 25.19 10 50.1 86 7.8 46.1
03:45 1024 30.24 853 25.19 10.1 50.1 86 7.8 46.1
03:50 1024 30.24 853 25.19 10 50 86 7.8 46.1
03:55 1024 30.24 853 25.19 10.2 50.3 84 7.6 45.6
04:00 1024 30.24 853 25.19 10.3 50.5 84 7.7 45.8
04:05 1024 30.24 853 25.19 10.1 50.3 84 7.6 45.7
04:10 1024 30.24 853 25.19 10.1 50.2 84 7.6 45.6
04:15 1024 30.24 853 25.19 10.2 50.4 83 7.6 45.6
04:20 1024 30.24 853 25.19 10.1 50.2 83 7.4 45.4
04:25 1023 30.21 853 25.19 10.1 50.1 83 7.4 45.3
04:30 1023 30.21 853 25.19 10.2 50.4 82 7.3 45.2
04:35 1023 30.21 853 25.19 10.3 50.5 82 7.4 45.3
04:40 1023 30.21 853 25.19 10.2 50.3 83 7.4 45.3
04:45 1024 30.24 853 25.19 10.1 50.2 83 7.4 45.3
04:50 1023 30.21 853 25.19 10 50 84 7.4 45.3
04:55 1024 30.24 853 25.19 9.7 49.4 85 7.3 45.2
05:00 1024 30.24 853 25.19 9.4 48.8 87 7.2 45
05:05 1024 30.24 853 25.19 9.6 49.4 83 6.9 44.4
05:10 1024 30.24 853 25.19 10.2 50.4 82 7.3 45.2
05:15 1024 30.24 853 25.19 10.2 50.4 82 7.3 45.2
05:20 1024 30.24 853 25.19 10.1 50.1 83 7.3 45.2
05:25 1024 30.24 853 25.19 9.7 49.5 84 7.2 45
05:30 1023 30.21 853 25.19 9.5 49.1 85 7.1 44.7
05:35 1023 30.21 853 25.19 9.4 48.8 85 7 44.6
05:40 1023 30.21 853 25.19 9.3 48.7 86 7 44.7
05:45 1023 30.21 853 25.19 9.1 48.3 87 7 44.6
05:50 1023 30.21 853 25.19 9.1 48.4 86 6.9 44.4
05:55 1023 30.21 853 25.19 9.3 48.7 84 6.8 44.2
06:00 1023 30.21 853 25.19 9.5 49.1 83 6.9 44.4
06:05 1023 30.21 853 25.19 9.7 49.5 83 7 44.6
06:10 1023 30.21 853 25.19 9.6 49.2 84 7.1 44.8
06:15 1023 30.21 853 25.19 9.7 49.4 83 6.9 44.4
06:20 1023 30.21 853 25.19 9.8 49.6 83 7 44.6
06:25 1023 30.21 853 25.19 9.6 49.4 83 6.9 44.4
06:30 1023 30.21 853 25.19 9.9 49.9 82 7 44.7
06:35 1023 30.21 853 25.19 9.8 49.7 83 7.1 44.9
06:40 1023 30.21 853 25.19 9.6 49.4 84 7.1 44.9
06:45 1023 30.21 853 25.19 9.5 49.1 85 7.1 44.8
06:50 1023 30.21 853 25.19 9.5 49.1 85 7.1 44.8
06:55 1023 30.21 853 25.19 9.7 49.5 85 7.3 45.1
07:00 1023 30.21 853 25.19 10 50 83 7.2 45
07:05 1024 30.24 853 25.19 10.1 50.2 82 7.2 44.9
07:10 1024 30.24 853 25.19 10.4 50.6 82 7.3 45.2
07:15 1023 30.21 853 25.19 10.6 51.1 81 7.4 45.4
07:20 1023 30.21 853 25.19 10.8 51.5 79 7.4 45.3
07:25 1023 30.21 853 25.19 10.7 51.3 81 7.6 45.7
07:30 1023 30.21 853 25.19 10.8 51.4 80 7.6 45.6
07:35 1023 30.21 853 25.19 10.9 51.6 80 7.7 45.8
07:40 1023 30.21 853 25.19 11.3 52.3 79 7.8 46
07:45 1023 30.21 853 25.19 11.5 52.8 79 8 46.5
07:50 1023 30.21 853 25.19 11.9 53.4 77 8.1 46.6
07:55 1023 30.21 853 25.19 12.3 54.1 77 8.4 47
08:00 1023 30.21 853 25.19 12.3 54.2 76 8.2 46.8
08:05 1023 30.21 853 25.19 13 55.5 73 8.3 46.9
08:10 1023 30.21 853 25.19 13.4 56.1 72 8.4 47.1
08:15 1023 30.21 853 25.19 13.9 57 70 8.5 47.4
08:20 1023 30.21 852 25.16 14.2 57.5 70 8.9 48
08:25 1023 30.21 852 25.16 14.7 58.5 68 9.1 48.3
08:30 1023 30.21 852 25.16 14.9 58.8 67 8.9 48
08:35 1023 30.21 852 25.16 15 59 65 8.5 47.3
08:40 1023 30.21 852 25.16 15.5 59.9 66 9.2 48.6
08:45 1023 30.21 852 25.16 15.7 60.3 63 8.8 47.8
08:50 1023 30.21 852 25.16 15.4 59.8 66 9.1 48.5
08:55 1023 30.21 852 25.16 16.2 61.1 63 9.2 48.5
09:00 1023 30.21 852 25.16 16.7 62 64 9.8 49.6
09:05 1023 30.21 852 25.16 16.5 61.7 63 9.6 49.3
09:10 1023 30.21 852 25.16 17 62.7 60 9.3 48.8
09:15 1023 30.21 852 25.16 17.4 63.3 60 9.5 49.2
09:20 1023 30.21 852 25.16 17.2 63 58 9 48.2
09:25 1023 30.21 852 25.16 17.8 64 56 8.9 48.1
09:30 1023 30.21 852 25.16 18 64.4 56 9.2 48.5
09:35 1023 30.21 852 25.16 17.8 64.1 59 9.8 49.7
09:40 1023 30.21 852 25.16 17.3 63.1 58 9 48.2
09:45 1023 30.21 852 25.16 18.2 64.7 56 9.4 48.9
09:50 1023 30.21 852 25.16 18.4 65.1 55 9.2 48.5
09:55 1023 30.21 852 25.16 18.7 65.6 55 9.6 49.3
10:00 1023 30.21 852 25.16 18.9 66 54 9.5 49.2
10:05 1023 30.21 852 25.16 19.2 66.6 52 9.3 48.8
10:10 1023 30.21 852 25.16 18.7 65.7 52 8.9 48.1
10:15 1023 30.21 852 25.16 19.3 66.8 51 8.9 48.1
10:20 1023 30.21 852 25.16 19.8 67.6 51 9.4 48.9
10:25 1022 30.18 852 25.16 19.6 67.3 50 9 48.2
10:30 1022 30.18 852 25.16 20.1 68.2 50 9.7 49.4
10:35 1022 30.18 852 25.16 19.5 67.1 52 9.6 49.2
10:40 1022 30.18 852 25.16 19.9 67.8 50 9.4 48.9
10:45 1022 30.18 852 25.16 19.7 67.5 51 9.4 48.9
10:50 1022 30.18 851 25.13 20.4 68.7 50 9.8 49.6
10:55 1022 30.18 851 25.13 20.4 68.6 49 9.4 48.9
11:00 1022 30.18 851 25.13 19.8 67.7 51 9.5 49
11:05 1022 30.18 851 25.13 20.3 68.5 50 9.5 49.1
11:10 1022 30.18 851 25.13 20.6 69 49 9.5 49.1
11:15 1022 30.18 851 25.13 20.6 69 51 10.1 50.2
11:20 1022 30.18 851 25.13 20.6 69.1 49 9.7 49.5
11:25 1022 30.18 851 25.13 19.8 67.7 52 9.9 49.8
11:30 1022 30.18 851 25.13 19.6 67.3 53 10 49.9
11:35 1022 30.18 851 25.13 19.4 67 54 9.9 49.8
11:40 1022 30.18 851 25.13 19.7 67.4 53 9.9 49.9
11:45 1022 30.18 851 25.13 20.5 68.9 49 9.4 48.9
11:50 1022 30.18 851 25.13 21.3 70.3 48 10 50
11:55 1022 30.18 851 25.13 20.3 68.6 50 9.6 49.4
12:00 1022 30.18 851 25.13 21.9 71.4 43 8.8 47.9
12:05 1022 30.18 851 25.13 22.4 72.3 43 9.5 49
12:10 1022 30.18 851 25.13 22.2 71.9 39 7.7 45.8
12:15 1022 30.18 851 25.13 20.9 69.6 48 9.6 49.3
12:20 1022 30.18 851 25.13 21.1 70 44 8.7 47.7
12:25 1022 30.18 851 25.13 21.2 70.2 44 8.6 47.5
12:30 1022 30.18 851 25.13 21.3 70.3 42 8.1 46.6
12:35 1022 30.18 851 25.13 22.3 72.1 41 8.7 47.7
12:40 1022 30.18 851 25.13 22.7 72.9 38 7.8 46
12:45 1022 30.18 851 25.13 21.6 71 42 8.2 46.8
12:50 1022 30.18 851 25.13 21.5 70.6 35 5.6 42.1
12:55 1022 30.18 851 25.13 21.4 70.5 39 7.2 44.9
13:00 1022 30.18 851 25.13 21.7 71.1 40 7.5 45.6
13:05 1022 30.18 851 25.13 21.9 71.4 37 6.9 44.4
13:10 1021 30.15 851 25.13 22.8 73 38 8 46.4
13:15 1021 30.15 851 25.13 23.9 75.1 32 6.6 43.8
13:20 1021 30.15 851 25.13 23.2 73.7 33 6.3 43.3
13:25 1021 30.15 851 25.13 22.4 72.3 39 7.9 46.2
13:30 1021 30.15 851 25.13 22.5 72.5 35 6.6 44
13:35 1021 30.15 851 25.13 23.1 73.6 36 7.4 45.4
13:40 1021 30.15 851 25.13 23.1 73.5 32 5.8 42.5
13:45 1021 30.15 850 25.1 23.7 74.7 31 5.9 42.7
13:50 1021 30.15 850 25.1 23.8 74.9 30 5.4 41.8
13:55 1021 30.15 850 25.1 24.2 75.5 25 3.2 37.7
14:00 1021 30.15 850 25.1 23.4 74 32 6 42.8
14:05 1021 30.15 850 25.1 23 73.3 33 6.2 43.1
14:10 1021 30.15 850 25.1 23.4 74.2 33 6.5 43.6
14:15 1021 30.15 850 25.1 23.9 75.1 31 6 42.8
14:20 1021 30.15 850 25.1 22.5 72.4 37 7 44.7
14:25 1021 30.15 850 25.1 21.9 71.4 35 5.8 42.4
14:30 1021 30.15 850 25.1 22 71.5 33 5.3 41.6
14:35 1021 30.15 850 25.1 23 73.5 33 6.2 43.2
14:40 1021 30.15 850 25.1 22.5 72.4 34 6.1 42.9
14:45 1021 30.15 850 25.1 23.9 75 31 5.9 42.6
14:50 1021 30.15 850 25.1 25.1 77.2 28 5.6 42.1
14:55 1021 30.15 850 25.1 25.2 77.4 28 5.9 42.7
15:00 1021 30.15 850 25.1 24.4 75.8 31 6.2 43.1
15:05 1021 30.15 850 25.1 25.1 77.2 30 6.5 43.7
15:10 1021 30.15 850 25.1 24.6 76.3 31 6.4 43.5
15:15 1021 30.15 850 25.1 24.6 76.3 29 5.6 42.2
15:20 1021 30.15 850 25.1 25.3 77.6 28 6 42.8
15:25 1020 30.12 850 25.1 24.7 76.4 30 6 42.9
15:30 1020 30.12 850 25.1 24.8 76.6 29 5.8 42.4
15:35 1020 30.12 850 25.1 24.6 76.2 30 6.1 42.9
15:40 1020 30.12 850 25.1 24.3 75.7 30 5.7 42.2
15:45 1020 30.12 850 25.1 24.3 75.7 29 5.3 41.6
15:50 1020 30.12 850 25.1 24.6 76.2 29 5.7 42.2
15:55 1020 30.12 850 25.1 24.8 76.6 29 5.8 42.4
16:00 1020 30.12 850 25.1 24.8 76.7 30 6.2 43.2
16:05 1020 30.12 850 25.1 24.9 76.7 26 4.4 39.9
16:10 1020 30.12 850 25.1 24.4 75.9 30 5.8 42.4
16:15 1020 30.12 850 25.1 23.8 74.9 30 5.4 41.8
16:20 1020 30.12 850 25.1 23.3 74 32 6.1 43
16:25 1021 30.15 850 25.1 21.7 71 44 9.2 48.5
16:30 1021 30.15 850 25.1 20.1 68.1 46 8.4 47.1
16:35 1021 30.15 850 25.1 19.3 66.8 51 8.9 48
16:40 1021 30.15 850 25.1 18.6 65.5 52 8.6 47.4
16:45 1021 30.15 850 25.1 18.5 65.4 53 8.9 48
16:50 1021 30.15 850 25.1 18.4 65.2 52 8.5 47.3
16:55 1021 30.15 850 25.1 18.3 65 52 8.3 47
17:00 1021 30.15 850 25.1 18.4 65 51 8 46.5
17:05 1021 30.15 850 25.1 18.4 65.2 51 8.1 46.6
17:10 1021 30.15 850 25.1 18.2 64.8 50 7.7 45.9
17:15 1021 30.15 850 25.1 18.2 64.8 53 8.5 47.4
17:20 1021 30.15 850 25.1 17.6 63.7 58 9.4 49
17:25 1021 30.15 850 25.1 17 62.6 61 9.4 48.9
17:30 1021 30.15 851 25.13 16.5 61.8 63 9.5 49.1
17:35 1021 30.15 851 25.13 16.6 61.9 60 8.8 47.8
17:40 1021 30.15 851 25.13 16.5 61.6 61 8.9 48.1
17:45 1021 30.15 851 25.13 16.8 62.3 60 9 48.2
17:50 1021 30.15 851 25.13 16.8 62.2 62 9.4 49
17:55 1021 30.15 851 25.13 16.7 62 63 9.6 49.3
18:00 1021 30.15 851 25.13 16.5 61.8 65 9.9 49.9
18:05 1021 30.15 851 25.13 17 62.5 63 10 49.9
18:10 1021 30.15 851 25.13 16.8 62.3 65 10.2 50.4
18:15 1021 30.15 851 25.13 16.7 62 65 10.2 50.3
18:20 1021 30.15 851 25.13 16.4 61.6 67 10.5 50.8
18:25 1021 30.15 851 25.13 16.2 61.1 69 10.5 50.8
18:30 1022 30.18 851 25.13 16.3 61.3 68 10.4 50.7
18:35 1022 30.18 851 25.13 16.6 61.9 65 10.1 50.1
18:40 1022 30.18 851 25.13 16.8 62.2 63 9.9 49.8
18:45 1022 30.18 851 25.13 17.1 62.7 63 10 50
18:50 1022 30.18 851 25.13 17.1 62.8 60 9.3 48.7
18:55 1022 30.18 851 25.13 17.2 62.9 61 9.6 49.3
19:00 1022 30.18 851 25.13 17 62.6 62 9.8 49.7
19:05 1022 30.18 851 25.13 17 62.5 65 10.3 50.6
19:10 1022 30.18 851 25.13 16.8 62.2 66 10.4 50.6
19:15 1022 30.18 851 25.13 16.8 62.2 63 9.8 49.7
19:20 1022 30.18 851 25.13 16.6 62 63 9.6 49.3
19:25 1022 30.18 851 25.13 16.5 61.8 65 9.9 49.9
19:30 1022 30.18 851 25.13 16.2 61.2 66 9.8 49.7
19:35 1022 30.18 851 25.13 16 60.8 66 9.8 49.6
19:40 1022 30.18 851 25.13 15.9 60.5 68 10 49.9
19:45 1022 30.18 851 25.13 15.8 60.4 68 10 49.9
19:50 1022 30.18 851 25.13 15.8 60.4 69 10.1 50.2
19:55 1022 30.18 851 25.13 15.7 60.2 69 10.1 50.1
20:00 1022 30.18 851 25.13 15.5 59.9 69 10 49.9
20:05 1022 30.18 851 25.13 15.6 60.1 69 10 50.1
20:10 1022 30.18 851 25.13 15.7 60.2 70 10.4 50.6
20:15 1022 30.18 851 25.13 15.5 59.8 73 10.6 51.1
20:20 1022 30.18 851 25.13 15 59.1 74 10.5 50.9
20:25 1022 30.18 851 25.13 14.9 58.8 75 10.6 51.1
20:30 1022 30.18 851 25.13 14.6 58.2 78 10.8 51.4
20:35 1022 30.18 851 25.13 14.4 57.9 79 10.9 51.6
20:40 1022 30.18 851 25.13 14.5 58 80 11 51.9
20:45 1022 30.18 851 25.13 14.5 58.1 81 11.2 52.2
20:50 1022 30.18 851 25.13 14.2 57.6 82 11.2 52.1
20:55 1022 30.18 851 25.13 14.2 57.5 81 10.9 51.6
21:00 1022 30.18 852 25.16 14.2 57.5 81 11 51.7
21:05 1022 30.18 852 25.16 14.3 57.7 80 10.9 51.5
21:10 1023 30.21 852 25.16 14.2 57.6 80 10.9 51.6
21:15 1023 30.21 852 25.16 14.2 57.6 79 10.8 51.4
21:20 1023 30.21 852 25.16 14.4 57.9 79 10.7 51.3
21:25 1023 30.21 852 25.16 14.4 58 78 10.6 51.1
21:30 1023 30.21 852 25.16 14.4 57.9 78 10.7 51.2
21:35 1023 30.21 852 25.16 14.4 57.8 78 10.7 51.2
21:40 1023 30.21 852 25.16 14.3 57.7 79 10.7 51.2
21:45 1023 30.21 852 25.16 14.2 57.5 79 10.5 51
21:50 1023 30.21 852 25.16 14.2 57.5 79 10.6 51
21:55 1023 30.21 852 25.16 14.1 57.3 80 10.7 51.2
22:00 1023 30.21 852 25.16 14 57.2 80 10.6 51.1
22:05 1023 30.21 852 25.16 13.9 56.9 81 10.8 51.4
22:10 1023 30.21 852 25.16 13.8 56.8 82 10.7 51.3
22:15 1023 30.21 852 25.16 13.9 56.9 81 10.7 51.2
22:20 1023 30.21 852 25.16 13.9 57 81 10.8 51.4
22:25 1023 30.21 852 25.16 13.8 56.8 82 10.8 51.5
22:30 1023 30.21 852 25.16 13.7 56.6 83 10.9 51.6
22:35 1023 30.21 852 25.16 13.7 56.7 84 11.1 51.9
22:40 1023 30.21 852 25.16 13.7 56.6 84 11.1 51.9
22:45 1023 30.21 852 25.16 13.4 56.2 86 11.1 51.9
22:50 1023 30.21 852 25.16 13.5 56.3 84 10.9 51.6
22:55 1023 30.21 852 25.16 13.6 56.5 84 11.1 51.9
23:00 1023 30.21 852 25.16 13.7 56.7 84 11.1 52
23:05 1023 30.21 852 25.16 13.7 56.6 85 11.2 52.2
23:10 1023 30.21 852 25.16 13.6 56.5 85 11.2 52.1
23:15 1023 30.21 852 25.16 13.6 56.4 85 11.1 52
23:20 1023 30.21 852 25.16 13.5 56.4 85 11.1 52
23:25 1023 30.21 852 25.16 13.5 56.3 86 11.2 52.2
23:30 1023 30.21 852 25.16 13.3 56 87 11.2 52.2
23:35 1023 30.21 852 25.16 13.3 56 87 11.2 52.1
23:40 1023 30.21 852 25.16 13.4 56.1 86 11.1 52.1
23:45 1023 30.21 852 25.16 13.4 56.2 86 11.1 52
23:50 1023 30.21 852 25.16 13.5 56.2 86 11.1 52
23:55 1023 30.21 852 25.16 13.4 56.1 86 11.2 52.2
24:00 1023 30.21 852 25.16 13.3 56 86 11.1 52